Weather History for Mount Pleasant, IA

Change the Weather History Date:

Monday, February 18, 2013

  Actual Average Record
Temperature  
Mean Temperature 42 °F -  
Max Temperature 60 °F 38 °F 65 °F (1981)
Min Temperature 24 °F 22 °F -10 °F (1958)
Degree Days  
Heating Degree Days 22    
Moisture  
Dew Point 29 °F    
Average Humidity 61    
Maximum Humidity 81    
Minimum Humidity 40    
Precipitation  
Precipitation 0.11 in - - ()
Sea Level Pressure  
Sea Level Pressure 29.66 in    
Wind  
Wind Speed 16 mph (SW)    
Max Wind Speed 28 mph    
Max Gust Speed 39 mph    
Visibility 9 miles    
Events Rain , Snow    
Averages and records for this station are not official NWS values.
T = Trace of Precipitation, MM = Missing Value Source: NWS Daily Summary

Daily Weather History Graph

Daily Weather History Graph

Search for Another Location

Airport:

Trip Planner

Search our weather history database for the weather conditions in past years. The results will help you decide how hot, cold, wet, or windy it might be!

Date:

Astronomy

Feb. 18, 2013 Rise Set
Actual Time 6:55 AM CST 5:44 PM CST
Civil Twilight 6:27 AM CST 6:12 PM CST
Nautical Twilight 5:55 AM CST 6:44 PM CST
Astronomical Twilight 5:24 AM CST 7:16 PM CST
Moon 11:29 AM CST (2/18) 1:37 AM CST (2/18)
Length of Visible Light 11h 44m
Length of Day
10h 48m
First Quarter, 58% of the Moon is Illuminated
Feb 18
First Quarter
Feb 25
Full
Mar 4
Last Quarter
Mar 11
New
Mar 19
First Quarter

Hourly Weather History & Observations

Time (CST) Temp. Windchill Dew Point Humidity Pressure Visibility Wind Dir Wind Speed Gust Speed Precip Events Conditions
12:15 AM 39.7 °F 30.6 °F 25.7 °F 57% 29.78 in 10.0 mi SSE 18.4 mph 23.0 mph N/A   Clear
12:35 AM 39.7 °F 30.6 °F 26.6 °F 59% 29.77 in 10.0 mi SSE 18.4 mph 23.0 mph N/A   Clear
12:55 AM 39.9 °F 31.4 °F 27.1 °F 60% 29.76 in 10.0 mi SSE 16.1 mph 21.9 mph N/A   Clear
1:15 AM 39.9 °F 32.1 °F 27.3 °F 61% 29.75 in 10.0 mi SSE 13.8 mph - N/A   Clear
1:35 AM 39.7 °F 31.2 °F 27.9 °F 63% 29.74 in 10.0 mi SSE 16.1 mph 20.7 mph N/A   Clear
1:55 AM 40.1 °F 31.6 °F 28.2 °F 63% 29.73 in 10.0 mi SSE 16.1 mph 20.7 mph N/A   Clear
2:15 AM 40.1 °F 31.6 °F 28.4 °F 63% 29.73 in 10.0 mi SSE 16.1 mph 20.7 mph N/A   Clear
2:35 AM 40.1 °F 32.0 °F 28.4 °F 63% 29.72 in 10.0 mi SSE 15.0 mph - N/A   Clear
2:55 AM 40.1 °F 32.4 °F 28.8 °F 64% 29.70 in 10.0 mi SSE 13.8 mph - N/A   Clear
3:15 AM 40.3 °F 32.2 °F 28.9 °F 64% 29.69 in 10.0 mi SSE 15.0 mph - N/A   Clear
3:35 AM 40.1 °F 32.4 °F 29.1 °F 65% 29.68 in 10.0 mi SSE 13.8 mph - N/A   Clear
3:55 AM 40.1 °F 32.0 °F 29.3 °F 65% 29.67 in 10.0 mi SSE 15.0 mph - N/A   Clear
4:15 AM 40.1 °F 32.4 °F 29.3 °F 65% 29.66 in 10.0 mi SSE 13.8 mph - N/A   Clear
4:35 AM 40.1 °F 32.7 °F 29.7 °F 66% 29.65 in 10.0 mi SSE 12.7 mph - N/A   Clear
4:55 AM 40.1 °F 32.7 °F 29.7 °F 66% 29.65 in 10.0 mi SSE 12.7 mph - N/A   Clear
5:15 AM 40.1 °F 33.2 °F 30.0 °F 67% 29.65 in 10.0 mi SSE 11.5 mph - N/A   Clear
5:35 AM 40.1 °F 33.6 °F 30.0 °F 67% 29.64 in 10.0 mi SSE 10.4 mph - N/A   Clear
5:55 AM 40.1 °F 33.2 °F 30.2 °F 68% 29.64 in 10.0 mi SSE 11.5 mph - N/A   Clear
6:15 AM 40.1 °F 33.6 °F 30.2 °F 68% 29.64 in 10.0 mi South 10.4 mph - N/A   Clear
6:35 AM 40.1 °F 33.6 °F 30.2 °F 68% 29.63 in 10.0 mi SSE 10.4 mph - N/A   Clear
6:55 AM 40.5 °F 34.1 °F 30.2 °F 67% 29.63 in 10.0 mi SSE 10.4 mph - N/A   Clear
7:15 AM 40.8 °F 35.0 °F 30.7 °F 67% 29.63 in 10.0 mi SSE 9.2 mph - N/A   Clear
7:35 AM 41.7 °F 35.6 °F 30.9 °F 66% 29.62 in 10.0 mi SSE 10.4 mph - N/A   Clear
7:55 AM 43.2 °F 37.0 °F 31.1 °F 62% 29.62 in 10.0 mi South 11.5 mph - N/A   Clear
8:15 AM 44.8 °F 38.3 °F 31.5 °F 60% 29.62 in 10.0 mi South 13.8 mph - N/A   Clear
8:35 AM 46.6 °F - 31.8 °F 56% 29.62 in 10.0 mi South 12.7 mph - N/A   Clear
8:55 AM 49.1 °F - 32.0 °F 52% 29.62 in 10.0 mi South 15.0 mph 21.9 mph N/A   Clear
9:15 AM 51.3 °F - 32.0 °F 48% 29.62 in 10.0 mi South 17.3 mph - N/A   Clear
9:35 AM 51.4 °F - 32.0 °F 47% 29.61 in 10.0 mi South 19.6 mph 24.2 mph N/A   Clear
9:55 AM 53.4 °F - 32.7 °F 45% 29.60 in 10.0 mi South 17.3 mph - N/A   Clear
10:15 AM 54.1 °F - 33.1 °F 45% 29.60 in 10.0 mi South 13.8 mph - N/A   Scattered Clouds
10:35 AM 57.4 °F - 34.2 °F 42% 29.59 in 10.0 mi SSW 18.4 mph 24.2 mph N/A   Scattered Clouds
10:55 AM 59.7 °F - 35.1 °F 40% 29.58 in 10.0 mi SSW 23.0 mph 28.8 mph N/A   Scattered Clouds
11:15 AM 59.7 °F - 35.2 °F 40% 29.57 in 10.0 mi SSW 20.7 mph 27.6 mph N/A   Scattered Clouds
11:35 AM 60.1 °F - 35.8 °F 40% 29.56 in 10.0 mi SSW 25.3 mph 33.4 mph N/A   Scattered Clouds
11:55 AM 59.0 °F - 36.9 °F 44% 29.56 in 10.0 mi SSW 18.4 mph 26.5 mph N/A   Mostly Cloudy
12:15 PM 58.3 °F - 37.8 °F 46% 29.55 in 10.0 mi SSW 18.4 mph 26.5 mph N/A   Overcast
12:35 PM 58.1 °F - 37.8 °F 47% 29.54 in 10.0 mi SSW 17.3 mph 29.9 mph N/A   Overcast
12:55 PM 57.6 °F - 38.1 °F 48% 29.53 in 10.0 mi South 19.6 mph 25.3 mph N/A   Overcast
1:15 PM 56.8 °F - 39.0 °F 51% 29.52 in 10.0 mi South 13.8 mph - N/A   Light Drizzle
1:35 PM 53.8 °F - 37.2 °F 54% 29.53 in 7.0 mi West 13.8 mph 18.4 mph N/A Rain Rain
1:55 PM 48.6 °F - 36.9 °F 64% 29.54 in 5.0 mi WNW 8.1 mph - N/A   Light Drizzle
2:15 PM 46.6 °F - 36.7 °F 68% 29.54 in 7.0 mi WNW 12.7 mph - N/A Rain Light Rain
2:35 PM 44.6 °F 38.4 °F 36.1 °F 72% 29.55 in 2.5 mi WNW 12.7 mph 23.0 mph 0.01 in Rain Rain
2:55 PM 43.7 °F 36.9 °F 36.0 °F 74% 29.55 in 4.0 mi WNW 13.8 mph 23.0 mph 0.04 in Rain Rain
3:15 PM 43.0 °F 35.4 °F 35.4 °F 75% 29.55 in 3.0 mi NW 16.1 mph 20.7 mph 0.03 in Rain Heavy Rain
3:35 PM 42.3 °F 33.8 °F 35.1 °F 76% 29.55 in 5.0 mi NW 18.4 mph 23.0 mph 0.04 in Rain Rain
3:55 PM 40.6 °F 32.3 °F 33.8 °F 77% 29.56 in 4.0 mi NW 16.1 mph 24.2 mph 0.05 in Rain Light Rain
4:15 PM 40.3 °F 31.9 °F 33.8 °F 78% 29.58 in 3.0 mi NW 16.1 mph 23.0 mph N/A Rain Light Rain
4:35 PM 39.0 °F 31.0 °F 32.9 °F 79% 29.59 in 2.0 mi NW 13.8 mph 20.7 mph 0.01 in   Unknown
4:55 PM 38.3 °F 30.9 °F 32.2 °F 79% 29.59 in 2.5 mi NW 11.5 mph 20.7 mph 0.01 in   Unknown
5:15 PM 37.6 °F 29.1 °F 32.0 °F 80% 29.61 in 1.2 mi WNW 13.8 mph 24.2 mph 0.01 in Snow Light Snow
5:35 PM 36.7 °F 25.4 °F 31.5 °F 81% 29.62 in 1.8 mi WNW 23.0 mph 31.1 mph 0.01 in Snow Light Snow
5:55 PM 36.5 °F 26.3 °F 29.1 °F 75% 29.64 in 4.0 mi WNW 18.4 mph 29.9 mph 0.01 in Snow Light Snow
6:15 PM 35.6 °F 24.0 °F 26.4 °F 69% 29.66 in 10.0 mi NW 23.0 mph 31.1 mph N/A   Overcast
6:35 PM 34.7 °F 23.1 °F 26.4 °F 72% 29.68 in 10.0 mi WNW 21.9 mph 29.9 mph N/A   Overcast
6:55 PM 34.2 °F 21.0 °F 23.7 °F 66% 29.70 in 10.0 mi WNW 27.6 mph 36.8 mph N/A   Overcast
7:15 PM 32.9 °F 20.1 °F 22.3 °F 65% 29.72 in 10.0 mi WNW 24.2 mph 31.1 mph N/A   Overcast
7:35 PM 32.2 °F 20.0 °F 21.2 °F 64% 29.73 in 10.0 mi WNW 20.7 mph 31.1 mph N/A   Overcast
7:55 PM 32.2 °F 21.1 °F 21.4 °F 64% 29.73 in 10.0 mi WNW 17.3 mph 28.8 mph N/A   Overcast
8:15 PM 32.0 °F 20.1 °F 20.1 °F 62% 29.74 in 10.0 mi WNW 19.6 mph 31.1 mph N/A   Overcast
8:35 PM 31.1 °F 17.2 °F 17.4 °F 57% 29.76 in 10.0 mi WNW 26.5 mph 39.1 mph N/A   Overcast
8:55 PM 30.2 °F 17.8 °F 17.6 °F 60% 29.77 in 10.0 mi WNW 19.6 mph 29.9 mph N/A   Overcast
9:15 PM 30.2 °F 18.5 °F 18.3 °F 61% 29.78 in 10.0 mi WNW 17.3 mph 31.1 mph N/A   Overcast
9:35 PM 30.0 °F 17.5 °F 18.1 °F 61% 29.79 in 10.0 mi WNW 19.6 mph 25.3 mph N/A   Overcast
9:55 PM 30.0 °F 16.6 °F 16.7 °F 58% 29.80 in 10.0 mi WNW 23.0 mph 32.2 mph N/A   Overcast
10:15 PM 30.0 °F 19.1 °F 17.1 °F 59% 29.81 in 10.0 mi West 15.0 mph 26.5 mph N/A   Overcast
10:35 PM 29.5 °F 17.6 °F 16.3 °F 58% 29.81 in 10.0 mi West 17.3 mph 32.2 mph N/A   Overcast
10:55 PM 28.4 °F 16.2 °F 15.1 °F 57% 29.83 in 10.0 mi NW 17.3 mph 33.4 mph N/A   Overcast
11:15 PM 27.1 °F 13.8 °F 13.8 °F 57% 29.83 in 10.0 mi West 19.6 mph 27.6 mph N/A   Mostly Cloudy
11:35 PM 25.9 °F 11.4 °F 10.8 °F 53% 29.85 in 10.0 mi WNW 21.9 mph 38.0 mph N/A   Mostly Cloudy
11:55 PM 24.6 °F 10.9 °F 11.3 °F 57% 29.86 in 10.0 mi WNW 18.4 mph 27.6 mph N/A   Scattered Clouds